Time;durP1;ratioP1;P1;durP2;ratioP2;P2;SDS_P1;SDS_P2;PMS_P1;PMS_P2;Temp;Humidity;BMP_temperature;BMP_pressure;BME280_temperature;BME280_humidity;BME280_pressure;Samples;Min_cycle;Max_cycle;Signal;HPM_P1;HPM_P2
2022/08/01 00:00:06;;;;;;;;;;;;;;;20.03;63.70;99880.73;1707822;83;21490;-66
2022/08/01 00:02:33;;;;;;;6.85;1.35;;;;;;;20.01;63.76;99869.91;1686288;84;20191;-66
2022/08/01 00:05:00;;;;;;;1.90;1.45;;;;;;;19.94;63.94;99876.08;1684240;84;21071;-64
2022/08/01 00:07:26;;;;;;;;;;;;;;;19.92;64.09;99883.65;1676437;84;21054;-66
2022/08/01 00:09:52;;;;;;;3.55;1.50;;;;;;;19.90;64.10;99878.49;1677263;85;20204;-66
2022/08/01 00:12:19;;;;;;;3.58;1.40;;;;;;;19.85;64.32;99875.75;1687848;82;21499;-66
2022/08/01 00:14:46;;;;;;;6.92;1.57;;;;;;;19.82;64.38;99873.05;1701744;83;21132;-66
2022/08/01 00:17:12;;;;;;;;;;;;;;;19.84;64.52;99872.78;1686026;84;21598;-66
2022/08/01 00:19:39;;;;;;;;;;;;;;;19.83;64.70;99871.14;1694096;83;20141;-67
2022/08/01 00:22:05;;;;;;;3.98;1.47;;;;;;;19.77;64.84;99873.55;1689929;81;20154;-67
2022/08/01 00:24:32;;;;;;;4.92;1.70;;;;;;;19.67;65.54;99875.62;1683937;83;21516;-66
2022/08/01 00:26:57;;;;;;;4.53;1.60;;;;;;;19.31;65.56;99818.59;1701161;83;21016;-67
2022/08/01 00:29:24;;;;;;;8.70;1.65;;;;;;;19.61;65.69;99872.61;1673168;84;21083;-67
2022/08/01 00:31:50;;;;;;;4.22;2.05;;;;;;;19.60;65.68;99878.53;1691195;84;21012;-66
2022/08/01 00:34:16;;;;;;;4.10;1.25;;;;;;;19.57;66.08;99873.66;1687444;81;21494;-66
2022/08/01 00:36:42;;;;;;;2.77;1.12;;;;;;;19.53;65.94;99875.23;1675203;85;21006;-65
2022/08/01 00:39:08;;;;;;;;;;;;;;;19.54;65.95;99863.36;1675200;85;21084;-67
2022/08/01 00:41:35;;;;;;;9.08;1.65;;;;;;;19.56;65.85;99872.02;1678468;85;20148;-67
2022/08/01 00:44:05;;;;;;;;;;;;;;;19.53;65.83;99868.47;1682041;85;21061;-67
2022/08/01 00:46:32;;;;;;;2.90;1.37;;;;;;;19.55;65.81;99863.65;1669840;83;20146;-67
2022/08/01 00:49:02;;;;;;;1.77;1.30;;;;;;;19.52;65.78;99856.59;1681226;85;21093;-66
2022/08/01 00:51:28;;;;;;;4.62;1.65;;;;;;;19.55;65.79;99858.75;1689026;85;21059;-67
2022/08/01 00:53:55;;;;;;;1.27;1.07;;;;;;;19.58;65.74;99861.76;1674668;85;20994;-66
2022/08/01 00:56:24;;;;;;;4.72;1.12;;;;;;;19.60;65.63;99857.45;1696379;83;21056;-66
2022/08/01 00:58:51;;;;;;;2.22;0.95;;;;;;;19.61;65.57;99853.14;1709070;82;21056;-66
2022/08/01 01:01:20;;;;;;;2.67;1.25;;;;;;;19.62;65.54;99855.30;1714030;81;21488;-65
2022/08/01 01:03:50;;;;;;;2.52;1.22;;;;;;;19.63;65.52;99854.23;1724510;81;21018;-67
2022/08/01 01:06:41;;;;;;;3.05;1.40;;;;;;;19.64;65.60;99857.20;1735445;82;21276;-67
2022/08/01 01:09:52;;;;;;;3.90;1.35;;;;;;;19.59;65.95;99862.05;1723406;83;21097;-67
2022/08/01 01:12:33;;;;;;;1.05;1.02;;;;;;;19.49;66.42;99864.66;1724381;81;21000;-67
2022/08/01 01:15:35;;;;;;;4.40;1.82;;;;;;;19.36;66.74;99860.50;1717935;81;21020;-68
2022/08/01 01:18:15;;;;;;;5.08;1.55;;;;;;;18.92;67.30;99802.61;1716537;82;21034;-67
2022/08/01 01:20:46;;;;;;;1.57;1.45;;;;;;;19.19;67.75;99857.96;1735937;81;21520;-66
2022/08/01 01:23:33;;;;;;;2.05;1.72;;;;;;;19.10;68.29;99862.20;1692008;84;21058;-65
2022/08/01 01:26:23;;;;;;;;;;;;;;;19.04;68.34;99865.91;1690291;84;21529;-66
2022/08/01 01:29:06;;;;;;;2.62;1.22;;;;;;;18.98;68.63;99862.88;1682820;84;20139;-64
2022/08/01 01:31:39;;;;;;;2.75;1.62;;;;;;;18.90;68.74;99858.76;1673458;84;21668;-66
2022/08/01 01:34:07;;;;;;;4.33;1.40;;;;;;;18.92;68.73;99855.80;1693218;82;21081;-65
2022/08/01 01:36:38;;;;;;;2.55;1.42;;;;;;;18.92;68.73;99862.02;1656289;86;21113;-66
2022/08/01 01:39:07;;;;;;;6.50;1.40;;;;;;;18.92;68.79;99872.01;1713746;82;21628;-66
2022/08/01 01:41:36;;;;;;;2.45;1.62;;;;;;;18.90;68.81;99868.20;1693252;83;21041;-66
2022/08/01 01:44:05;;;;;;;2.67;1.60;;;;;;;18.89;69.06;99866.56;1705347;83;21004;-66
2022/08/01 01:46:33;;;;;;;4.03;1.37;;;;;;;18.85;69.16;99872.20;1709521;82;20991;-65
2022/08/01 01:49:01;;;;;;;3.83;1.70;;;;;;;18.83;69.37;99870.29;1713161;82;21061;-66
2022/08/01 01:51:30;;;;;;;4.42;1.67;;;;;;;18.78;69.61;99862.09;1666076;86;21042;-64
2022/08/01 01:53:58;;;;;;;1.52;1.42;;;;;;;18.74;69.59;99871.27;1653623;85;21000;-66
2022/08/01 01:56:26;;;;;;;5.45;1.75;;;;;;;18.71;69.81;99878.52;1707666;82;21061;-65
2022/08/01 01:58:58;;;;;;;3.17;1.67;;;;;;;18.68;69.85;99876.31;1715834;82;20994;-65
2022/08/01 02:01:28;;;;;;;2.90;1.45;;;;;;;18.62;70.04;99879.48;1704287;82;21567;-65
2022/08/01 02:03:57;;;;;;;2.85;2.00;;;;;;;18.59;70.12;99879.17;1712313;82;20978;-66
2022/08/01 02:06:25;;;;;;;3.37;1.72;;;;;;;18.56;70.27;99875.64;1662259;86;21022;-66
2022/08/01 02:08:54;;;;;;;1.92;1.82;;;;;;;18.54;70.28;99877.24;1715006;82;20990;-65
2022/08/01 02:11:22;;;;;;;3.92;2.05;;;;;;;18.53;70.38;99874.25;1664145;83;21076;-65
2022/08/01 02:13:53;;;;;;;4.50;1.70;;;;;;;18.52;70.46;99877.22;1723240;82;20996;-65
2022/08/01 02:16:22;;;;;;;1.82;1.32;;;;;;;18.49;70.53;99877.98;1710776;82;21044;-65
2022/08/01 02:18:49;;;;;;;2.98;1.60;;;;;;;18.48;70.56;99884.46;1718247;82;21873;-68
2022/08/01 02:21:20;;;;;;;6.12;1.92;;;;;;;18.48;70.54;99875.56;1715065;83;21047;-66
2022/08/01 02:23:48;;;;;;;3.92;1.77;;;;;;;18.48;70.54;99872.32;1713504;82;20994;-67
2022/08/01 02:26:18;;;;;;;5.90;1.90;;;;;;;18.49;70.44;99869.08;1715916;82;21538;-66
2022/08/01 02:28:56;;;;;;;2.70;1.87;;;;;;;18.48;70.49;99870.16;1716320;83;21036;-66
2022/08/01 02:31:23;;;;;;;3.95;1.50;;;;;;;18.48;70.33;99865.57;1715273;82;21556;-66
2022/08/01 02:33:55;;;;;;;2.83;1.37;;;;;;;18.49;70.27;99870.42;1713641;82;21531;-68
2022/08/01 02:36:26;;;;;;;3.33;1.42;;;;;;;18.49;70.11;99869.88;1714089;82;21010;-66
2022/08/01 02:38:56;;;;;;;2.20;1.27;;;;;;;18.52;69.86;99862.38;1718735;83;21002;-66
2022/08/01 02:41:26;;;;;;;2.67;1.30;;;;;;;18.54;69.77;99863.75;1717898;83;20952;-66
2022/08/01 02:43:57;;;;;;;3.30;1.50;;;;;;;18.57;69.67;99865.95;1715548;82;21008;-67
2022/08/01 02:46:37;;;;;;;2.77;1.52;;;;;;;18.61;69.20;99864.89;1715884;82;21015;-66
2022/08/01 02:49:07;;;;;;;3.25;1.00;;;;;;;18.66;68.84;99860.91;1714944;83;21118;-67
2022/08/01 02:51:35;;;;;;;7.28;1.60;;;;;;;18.73;68.58;99855.32;1668207;85;21443;-67
2022/08/01 02:54:05;;;;;;;4.08;1.40;;;;;;;18.77;68.16;99858.59;1669770;86;21034;-67
2022/08/01 02:56:35;;;;;;;2.20;1.15;;;;;;;18.83;67.86;99860.84;1667614;83;21538;-66
2022/08/01 02:59:09;;;;;;;3.35;1.77;;;;;;;18.86;67.62;99859.80;1668708;86;21104;-66
2022/08/01 03:01:36;;;;;;;5.20;1.70;;;;;;;18.92;67.30;99858.51;1666729;84;21093;-66
2022/08/01 03:04:05;;;;;;;6.37;1.87;;;;;;;18.96;67.10;99862.32;1667274;84;21041;-66
2022/08/01 03:06:33;;;;;;;1.75;1.45;;;;;;;19.02;66.83;99864.00;1718165;83;21135;-65
2022/08/01 03:09:04;;;;;;;1.10;0.80;;;;;;;19.10;66.32;99856.80;1667041;86;21151;-66
2022/08/01 03:11:33;;;;;;;7.22;1.67;;;;;;;19.25;65.82;99861.52;1668457;83;21601;-65
2022/08/01 03:14:02;;;;;;;3.02;1.35;;;;;;;19.41;65.28;99861.09;1715385;83;21262;-66
2022/08/01 03:16:32;;;;;;;1.47;1.37;;;;;;;19.59;64.69;99871.51;1719864;82;21027;-66
2022/08/01 03:19:01;;;;;;;4.30;1.27;;;;;;;19.77;63.80;99874.35;1715730;82;21058;-67
2022/08/01 03:21:28;;;;;;;1.40;1.30;;;;;;;19.93;62.94;99869.87;1717480;83;20948;-67
2022/08/01 03:23:58;;;;;;;3.08;1.07;;;;;;;20.07;62.26;99872.10;1716970;82;21526;-67
2022/08/01 03:26:28;;;;;;;3.27;1.00;;;;;;;20.26;61.59;99872.47;1715748;83;21018;-68
2022/08/01 03:29:09;;;;;;;2.00;0.60;;;;;;;20.50;60.64;99873.64;1670251;84;21066;-69
2022/08/01 03:31:42;;;;;;;1.80;1.17;;;;;;;20.86;60.01;99868.35;1667196;86;21064;-67
2022/08/01 03:34:07;;;;;;;5.37;1.15;;;;;;;21.31;57.86;99874.09;1668819;84;21449;-67
2022/08/01 03:36:38;;;;;;;2.10;0.85;;;;;;;21.63;57.19;99867.61;1669023;84;21064;-67
2022/08/01 03:39:07;;;;;;;2.25;0.70;;;;;;;21.97;55.32;99871.87;1717825;83;21071;-67
2022/08/01 03:41:38;;;;;;;5.47;1.40;;;;;;;22.38;54.32;99866.87;1694082;83;21110;-67
2022/08/01 03:44:10;;;;;;;2.47;0.75;;;;;;;22.70;52.89;99867.81;1717632;82;21038;-67
2022/08/01 03:46:49;;;;;;;2.75;0.75;;;;;;;22.89;52.02;99854.39;1717965;83;20987;-67
2022/08/01 03:49:30;;;;;;;3.58;0.93;;;;;;;23.16;51.39;99865.37;1717652;83;21511;-65
2022/08/01 03:51:59;;;;;;;1.77;0.82;;;;;;;23.35;50.87;99863.56;1716111;82;21128;-66
2022/08/01 03:54:30;;;;;;;3.70;0.93;;;;;;;23.61;50.04;99856.55;1668423;86;21458;-68
2022/08/01 03:56:58;;;;;;;0.80;0.60;;;;;;;23.83;48.93;99860.98;1716943;82;22115;-67
2022/08/01 03:59:27;;;;;;;1.80;0.70;;;;;;;23.85;48.09;99859.34;1661121;86;21543;-67
2022/08/01 04:01:55;;;;;;;1.25;0.60;;;;;;;23.73;48.04;99862.40;1640037;86;21486;-65
2022/08/01 04:04:22;;;;;;;4.53;1.22;;;;;;;23.65;48.44;99862.48;1706783;82;21034;-68
2022/08/01 04:06:53;;;;;;;3.50;0.90;;;;;;;23.61;48.32;99855.99;1714555;82;21524;-65
2022/08/01 04:09:17;;;;;;;1.32;0.55;;;;;;;23.55;48.40;99857.15;1712814;82;20947;-66
2022/08/01 04:11:45;;;;;;;4.28;0.80;;;;;;;23.49;48.73;99861.02;1715115;82;20970;-66
2022/08/01 04:14:11;;;;;;;1.65;0.62;;;;;;;23.45;48.48;99866.74;1714650;82;20943;-67
2022/08/01 04:16:37;;;;;;;1.98;0.85;;;;;;;23.45;48.80;99863.50;1659426;85;21046;-68
2022/08/01 04:19:07;;;;;;;1.07;0.68;;;;;;;23.50;48.50;99863.43;1705756;82;21018;-66
2022/08/01 04:21:35;;;;;;;6.35;0.95;;;;;;;23.58;48.20;99863.91;1721107;82;21106;-66
2022/08/01 04:24:15;;;;;;;1.50;0.65;;;;;;;23.72;47.48;99856.72;1717645;82;21017;-67
2022/08/01 04:26:45;;;;;;;2.25;0.98;;;;;;;23.83;47.33;99863.70;1688138;83;20954;-66
2022/08/01 04:29:15;;;;;;;3.75;0.50;;;;;;;23.99;47.13;99866.26;1664645;85;21002;-67
2022/08/01 04:31:45;;;;;;;8.58;1.10;;;;;;;24.32;46.08;99862.31;1667207;84;21021;-67
2022/08/01 04:34:16;;;;;;;2.20;0.47;;;;;;;24.64;45.04;99852.14;1721389;81;20986;-68
2022/08/01 04:36:45;;;;;;;1.90;0.75;;;;;;;24.92;44.13;99855.83;1669418;86;21093;-67
2022/08/01 04:39:13;;;;;;;2.30;0.57;;;;;;;25.10;43.77;99851.44;1723239;82;21031;-67
2022/08/01 04:41:40;;;;;;;4.75;0.98;;;;;;;25.33;43.02;99855.17;1717413;82;20990;-70
2022/08/01 04:44:07;;;;;;;3.90;0.40;;;;;;;25.55;42.65;99853.17;1655832;81;21640;-75
2022/08/01 04:46:36;;;;;;;4.12;1.07;;;;;;;25.81;42.29;99851.34;1691026;83;21281;-74
2022/08/01 04:49:06;;;;;;;5.00;0.80;;;;;;;26.06;41.25;99852.80;1719957;82;21513;-73
2022/08/01 04:51:33;;;;;;;4.65;0.50;;;;;;;26.27;40.87;99853.75;1716328;82;20977;-72
2022/08/01 04:54:57;;;;;;;2.83;0.62;;;;;;;26.23;40.37;99856.28;1794728;78;22605;-72
2022/08/01 04:57:23;;;;;;;2.08;0.57;;;;;;;26.10;40.89;99857.89;1715924;80;21037;-72
2022/08/01 04:59:56;;;;;;;0.88;0.53;;;;;;;26.13;40.66;99856.50;1731614;81;21486;-79
2022/08/01 05:02:19;;;;;;;3.72;0.57;;;;;;;26.14;40.58;99852.08;1727681;81;21542;-72
2022/08/01 05:04:48;;;;;;;4.15;0.93;;;;;;;26.28;40.44;99845.82;1706753;82;21138;-73
2022/08/01 05:07:15;;;;;;;2.47;0.40;;;;;;;26.49;39.72;99840.72;1708757;81;21018;-73
2022/08/01 05:09:42;;;;;;;4.35;0.53;;;;;;;26.64;39.46;99838.24;1706309;81;21039;-77
2022/08/01 05:12:10;;;;;;;0.82;0.55;;;;;;;26.75;39.28;99840.99;1726763;81;21061;-73
2022/08/01 05:14:37;;;;;;;1.60;0.75;;;;;;;26.89;39.18;99842.30;1724141;82;21029;-70
2022/08/01 05:17:06;;;;;;;5.15;0.75;;;;;;;27.06;38.37;99842.98;1719283;81;21040;-67
2022/08/01 05:19:36;;;;;;;7.40;0.85;;;;;;;27.21;38.08;99839.88;1715693;81;21137;-72
2022/08/01 05:22:05;;;;;;;1.12;0.80;;;;;;;27.35;37.58;99838.45;1707819;81;21012;-80
2022/08/01 05:24:34;;;;;;;2.10;0.65;;;;;;;27.47;37.26;99833.80;1721771;81;21034;-70
2022/08/01 05:27:01;;;;;;;2.60;0.40;;;;;;;27.61;37.02;99833.13;1725948;82;21022;-69
2022/08/01 05:29:28;;;;;;;1.32;0.50;;;;;;;27.63;37.05;99838.29;1715601;81;21035;-72
2022/08/01 05:31:54;;;;;;;0.65;0.45;;;;;;;27.76;36.57;99831.36;1723019;81;21034;-69
2022/08/01 05:34:21;;;;;;;1.57;0.75;;;;;;;27.77;36.53;99833.53;1697084;83;21421;-71
2022/08/01 05:36:47;;;;;;;1.17;0.45;;;;;;;27.75;36.51;99832.47;1685587;83;21162;-72
2022/08/01 05:39:14;;;;;;;3.85;0.60;;;;;;;27.85;36.36;99828.64;1676329;83;21067;-73
2022/08/01 05:41:41;;;;;;;3.22;0.80;;;;;;;27.88;35.85;99835.44;1676346;83;21025;-69
2022/08/01 05:44:08;;;;;;;1.90;0.50;;;;;;;27.48;35.77;99836.22;1717852;83;21098;-67
2022/08/01 05:46:35;;;;;;;3.60;0.85;;;;;;;26.98;36.92;99831.67;1695397;83;21088;-65
2022/08/01 05:49:04;;;;;;;2.85;0.68;;;;;;;26.68;37.65;99835.94;1698504;83;21971;-66
2022/08/01 05:51:31;;;;;;;1.25;0.57;;;;;;;26.48;38.13;99831.70;1677872;83;21324;-65
2022/08/01 05:53:58;;;;;;;4.35;0.55;;;;;;;26.31;38.48;99839.16;1679409;83;21166;-65
2022/08/01 05:56:25;;;;;;;1.02;0.50;;;;;;;26.53;38.23;99841.16;1692506;82;21302;-65
2022/08/01 05:58:52;;;;;;;6.90;0.30;;;;;;;26.92;37.46;99849.89;1716043;81;21128;-74
2022/08/01 06:01:19;;;;;;;4.03;0.65;;;;;;;27.17;37.16;99845.73;1734035;80;20970;-79
2022/08/01 06:03:46;;;;;;;2.70;0.33;;;;;;;27.34;37.20;99842.33;1705370;81;21174;-77
2022/08/01 06:06:13;;;;;;;3.10;0.40;;;;;;;27.54;36.93;99850.02;1720453;81;21087;-66
2022/08/01 06:08:41;;;;;;;8.28;0.78;;;;;;;27.60;36.58;99838.37;1723081;81;21037;-67
2022/08/01 06:11:07;;;;;;;2.42;0.45;;;;;;;27.35;36.96;99844.76;1718008;81;21124;-68
2022/08/01 06:13:34;;;;;;;2.50;0.68;;;;;;;27.17;37.19;99832.84;1692450;81;21014;-67
2022/08/01 06:16:01;;;;;;;5.35;0.68;;;;;;;27.20;38.01;99831.44;1716753;81;21557;-69
2022/08/01 06:18:27;;;;;;;1.22;0.37;;;;;;;27.43;37.45;99816.39;1733825;81;21124;-69
2022/08/01 06:20:53;;;;;;;0.72;0.20;;;;;;;27.72;36.93;99828.98;1713120;81;21450;-69
2022/08/01 06:23:21;;;;;;;6.67;0.42;;;;;;;27.82;36.80;99820.25;1711357;81;20980;-69
2022/08/01 06:25:54;;;;;;;1.57;0.47;;;;;;;27.72;36.15;99827.62;1727373;81;21052;-69
2022/08/01 06:28:22;;;;;;;2.55;0.30;;;;;;;27.57;37.11;99822.56;1732497;83;21068;-74
2022/08/01 06:30:48;;;;;;;1.75;0.30;;;;;;;27.29;36.89;99819.98;1732544;83;21033;-73
2022/08/01 06:33:14;;;;;;;3.40;0.50;;;;;;;26.87;37.70;99815.83;1742845;80;21568;-72
2022/08/01 06:35:40;;;;;;;3.27;0.50;;;;;;;26.59;38.41;99804.42;1765411;80;21006;-72
2022/08/01 06:38:06;;;;;;;1.30;0.42;;;;;;;26.59;38.73;99808.52;1759140;81;21005;-73
2022/08/01 06:40:33;;;;;;;5.87;0.70;;;;;;;26.89;38.70;99810.28;1757128;81;21552;-75
2022/08/01 06:42:59;;;;;;;2.77;0.40;;;;;;;27.20;37.94;99804.08;1764517;81;20990;-69
2022/08/01 06:45:26;;;;;;;2.80;0.40;;;;;;;27.51;37.37;99788.25;1763189;80;20979;-70
2022/08/01 06:47:53;;;;;;;2.27;0.40;;;;;;;27.68;36.36;99793.78;1752730;81;21005;-73
2022/08/01 06:50:19;;;;;;;2.50;0.55;;;;;;;27.77;36.95;99789.16;1766252;81;20954;-69
2022/08/01 06:52:45;;;;;;;1.12;0.60;;;;;;;28.03;36.34;99793.94;1765631;81;21226;-70
2022/08/01 06:55:11;;;;;;;1.37;0.50;;;;;;;28.18;35.84;99794.59;1751031;80;21111;-72
2022/08/01 06:57:49;;;;;;;5.28;0.37;;;;;;;28.23;35.71;99786.23;1764949;81;21321;-72
2022/08/01 07:00:20;;;;;;;2.77;0.40;;;;;;;28.24;35.38;99780.44;1759642;80;21030;-74
2022/08/01 07:02:45;;;;;;;5.15;0.65;;;;;;;28.31;35.56;99773.92;1752566;81;20994;-75
2022/08/01 07:05:13;;;;;;;3.55;0.60;;;;;;;28.33;35.36;99781.80;1765348;81;21006;-76
2022/08/01 07:07:40;;;;;;;2.15;0.30;;;;;;;28.37;35.49;99780.05;1761903;81;21496;-77
2022/08/01 07:10:08;;;;;;;1.12;0.47;;;;;;;28.45;34.96;99779.24;1764473;81;21166;-75
2022/08/01 07:12:37;;;;;;;1.20;0.50;;;;;;;28.24;35.11;99767.31;1765386;80;21005;-75
2022/08/01 07:15:05;;;;;;;1.87;0.30;;;;;;;27.96;35.35;99792.23;1753810;81;21327;-74
2022/08/01 07:17:32;;;;;;;2.10;0.50;;;;;;;27.89;35.40;99782.30;1750720;81;21037;-77
2022/08/01 07:19:58;;;;;;;2.98;0.55;;;;;;;28.04;35.71;99778.30;1764480;81;21592;-72
2022/08/01 07:22:25;;;;;;;1.70;0.42;;;;;;;28.26;35.60;99766.42;1760311;80;20986;-71
2022/08/01 07:24:51;;;;;;;1.87;0.20;;;;;;;28.43;35.31;99773.85;1761175;81;21101;-76
2022/08/01 07:27:17;;;;;;;4.20;0.20;;;;;;;28.49;35.73;99773.35;1755847;81;21048;-70
2022/08/01 07:29:43;;;;;;;2.45;0.30;;;;;;;28.64;35.18;99777.58;1753212;81;21470;-72
2022/08/01 07:32:09;;;;;;;1.45;0.20;;;;;;;28.76;35.03;99775.55;1759282;81;21034;-72
2022/08/01 07:34:35;;;;;;;2.87;0.33;;;;;;;28.77;34.90;99770.89;1772537;80;21090;-72
2022/08/01 07:37:02;;;;;;;2.55;0.28;;;;;;;28.64;35.03;99781.69;1756119;81;21027;-74
2022/08/01 07:39:28;;;;;;;0.88;0.42;;;;;;;28.35;35.30;99781.74;1762185;81;20978;-72
2022/08/01 07:41:54;;;;;;;2.17;0.30;;;;;;;28.00;35.81;99790.45;1758353;80;21060;-72
2022/08/01 07:44:21;;;;;;;3.45;0.42;;;;;;;27.72;36.31;99774.23;1764076;80;21047;-69
2022/08/01 07:46:47;;;;;;;3.52;0.35;;;;;;;27.52;37.16;99770.69;1765575;80;21084;-72
2022/08/01 07:49:14;;;;;;;3.80;0.40;;;;;;;27.30;37.51;99775.67;1763644;80;21021;-70
2022/08/01 07:51:40;;;;;;;5.60;0.60;;;;;;;27.11;37.90;99784.06;1759790;81;21025;-73
2022/08/01 07:54:07;;;;;;;4.40;0.60;;;;;;;26.92;38.30;99774.70;1765476;81;21101;-77
2022/08/01 07:56:35;;;;;;;1.50;0.53;;;;;;;26.76;38.70;99794.75;1765338;80;20989;-73
2022/08/01 07:59:01;;;;;;;3.35;0.50;;;;;;;26.57;39.17;99781.22;1762482;81;21073;-74
2022/08/01 08:01:27;;;;;;;2.67;0.53;;;;;;;26.41;39.67;99776.11;1730091;82;21524;-72
2022/08/01 08:03:53;;;;;;;3.72;0.55;;;;;;;26.31;40.09;99778.26;1683454;83;21397;-72
2022/08/01 08:06:19;;;;;;;1.37;0.42;;;;;;;26.22;40.34;99768.64;1713319;83;21759;-71
2022/08/01 08:08:46;;;;;;;2.22;0.55;;;;;;;25.97;41.22;99764.51;1719469;83;21536;-70
2022/08/01 08:11:12;;;;;;;0.55;0.55;;;;;;;25.82;41.47;99780.08;1718456;83;20999;-71
2022/08/01 08:13:38;;;;;;;4.47;0.62;;;;;;;25.74;42.19;99771.78;1721110;83;21605;-73
2022/08/01 08:16:05;;;;;;;1.62;0.90;;;;;;;25.77;42.19;99775.28;1678938;84;21025;-71
2022/08/01 08:18:33;;;;;;;1.20;0.47;;;;;;;25.85;42.23;99763.64;1735061;81;21017;-72
2022/08/01 08:21:01;;;;;;;3.15;0.42;;;;;;;25.68;42.06;99711.03;1705692;83;20994;-71
2022/08/01 08:26:12;;;;;;;2.65;0.62;;;;;;;26.23;42.18;99747.81;1679191;83;21013;-67
2022/08/01 08:28:38;;;;;;;4.47;0.60;;;;;;;26.44;41.89;99758.85;1709312;83;20995;-70
2022/08/01 08:31:04;;;;;;;3.22;0.62;;;;;;;26.60;41.71;99764.25;1704139;83;21015;-69
2022/08/01 08:33:30;;;;;;;1.30;0.95;;;;;;;26.69;41.32;99762.39;1702851;83;21040;-69
2022/08/01 08:35:56;;;;;;;1.75;0.37;;;;;;;26.68;41.37;99755.86;1688963;83;21048;-72
2022/08/01 08:38:27;;;;;;;2.40;0.70;;;;;;;26.64;41.45;99760.34;1662426;84;21136;-70
2022/08/01 08:40:53;;;;;;;7.60;0.68;;;;;;;26.56;41.73;99752.27;1675731;84;21073;-73
2022/08/01 08:43:21;;;;;;;2.77;0.70;;;;;;;26.43;42.01;99756.69;1670758;84;21513;-71
2022/08/01 08:45:48;;;;;;;2.37;0.47;;;;;;;26.32;42.33;99748.47;1693947;84;21560;-72
2022/08/01 08:48:15;;;;;;;0.95;0.62;;;;;;;26.30;42.61;99743.88;1670397;84;20978;-72
2022/08/01 08:50:43;;;;;;;4.67;0.78;;;;;;;26.35;42.59;99759.59;1663493;84;21153;-70
2022/08/01 08:53:13;;;;;;;2.12;0.70;;;;;;;26.42;42.56;99755.86;1683061;84;21118;-72
2022/08/01 08:55:42;;;;;;;2.37;0.90;;;;;;;26.46;42.73;99764.81;1681867;84;21026;-73
2022/08/01 08:58:14;;;;;;;8.18;0.88;;;;;;;26.49;42.80;99755.44;1673898;85;21067;-72
2022/08/01 09:00:42;;;;;;;1.70;0.57;;;;;;;26.57;42.78;99754.70;1661542;85;21094;-71
2022/08/01 09:03:09;;;;;;;2.83;1.10;;;;;;;26.66;42.65;99751.27;1682396;85;20942;-70
2022/08/01 09:05:36;;;;;;;5.20;0.90;;;;;;;26.70;42.72;99760.46;1670999;86;21070;-72
2022/08/01 09:08:08;;;;;;;3.58;1.17;;;;;;;26.71;42.61;99759.33;1664214;85;21115;-71
2022/08/01 09:10:34;;;;;;;6.37;1.20;;;;;;;26.73;42.63;99752.98;1668909;86;21082;-72
2022/08/01 09:13:11;;;;;;;2.33;0.90;;;;;;;26.83;42.63;99766.99;1668465;86;21148;-71
2022/08/01 09:15:43;;;;;;;2.50;0.95;;;;;;;26.90;42.28;99761.33;1663975;86;21663;-73
2022/08/01 09:18:31;;;;;;;2.50;0.60;;;;;;;26.92;42.17;99755.56;1662443;86;21030;-73
2022/08/01 09:21:18;;;;;;;1.95;1.65;;;;;;;26.91;42.32;99758.83;1655040;86;21117;-72
2022/08/01 09:23:53;;;;;;;3.65;1.25;;;;;;;26.83;42.75;99750.02;1645406;86;21137;-70
2022/08/01 09:26:35;;;;;;;2.35;1.67;;;;;;;26.85;42.49;99753.81;1665674;85;21074;-69
2022/08/01 09:29:06;;;;;;;9.63;1.67;;;;;;;26.86;42.34;99748.04;1666777;85;21086;-76
2022/08/01 09:31:44;;;;;;;3.62;1.30;;;;;;;26.90;42.37;99738.62;1677938;85;21039;-72
2022/08/01 09:34:11;;;;;;;2.42;1.37;;;;;;;27.01;42.41;99748.19;1664377;85;21516;-70
2022/08/01 09:36:48;;;;;;;2.02;1.47;;;;;;;27.15;42.19;99750.86;1676151;85;21189;-73
2022/08/01 09:39:15;;;;;;;0.82;0.75;;;;;;;27.24;41.92;99759.92;1668294;85;22560;-71
2022/08/01 09:41:41;;;;;;;2.10;0.98;;;;;;;27.35;41.75;99744.88;1671583;85;21116;-72
2022/08/01 09:44:08;;;;;;;4.83;1.50;;;;;;;27.48;41.91;99741.80;1677577;85;21019;-74
2022/08/01 09:46:36;;;;;;;1.45;1.40;;;;;;;27.56;42.19;99753.33;1677404;84;21118;-73
2022/08/01 09:49:05;;;;;;;0.95;0.80;;;;;;;27.63;42.10;99760.27;1669994;85;21504;-74
2022/08/01 09:51:39;;;;;;;1.55;0.88;;;;;;;27.71;42.00;99752.09;1684103;85;21546;-74
2022/08/01 09:54:07;;;;;;;5.00;0.90;;;;;;;27.80;41.84;99765.80;1675302;84;21080;-72
2022/08/01 09:56:42;;;;;;;1.12;1.10;;;;;;;27.89;41.78;99741.22;1661055;85;21047;-73
2022/08/01 09:59:10;;;;;;;1.62;1.30;;;;;;;27.94;41.79;99756.13;1711693;82;21054;-77
2022/08/01 10:01:46;;;;;;;4.08;1.07;;;;;;;28.03;41.78;99756.13;1712833;82;20999;-78
2022/08/01 10:04:19;;;;;;;3.47;1.50;;;;;;;28.12;41.57;99761.89;1707988;84;21068;-78
2022/08/01 10:06:52;;;;;;;3.12;0.80;;;;;;;28.17;41.34;99761.49;1640730;85;21146;-75
2022/08/01 10:09:31;;;;;;;1.52;1.52;;;;;;;28.15;41.53;99737.95;1709589;84;21066;-73
2022/08/01 10:11:59;;;;;;;3.42;1.60;;;;;;;28.14;41.84;99751.42;1715057;83;21077;-74
2022/08/01 10:14:28;;;;;;;4.58;1.10;;;;;;;28.15;41.91;99742.06;1688170;84;21015;-77
2022/08/01 10:16:57;;;;;;;4.15;1.20;;;;;;;28.17;42.02;99740.38;1688340;84;21048;-76
2022/08/01 10:19:26;;;;;;;5.40;1.27;;;;;;;28.20;42.19;99753.44;1710779;83;21031;-70
2022/08/01 10:21:54;;;;;;;2.95;1.52;;;;;;;28.12;42.48;99742.72;1712300;84;21044;-76
2022/08/01 10:24:22;;;;;;;2.58;1.20;;;;;;;28.03;42.42;99761.07;1710791;83;21076;-74
2022/08/01 10:26:59;;;;;;;1.25;1.20;;;;;;;27.96;42.53;99740.98;1714882;84;21026;-75
2022/08/01 10:29:27;;;;;;;7.70;1.70;;;;;;;27.93;42.84;99749.03;1714890;83;21043;-73
2022/08/01 10:31:54;;;;;;;4.30;1.15;;;;;;;27.90;42.79;99727.20;1715100;84;21070;-72
2022/08/01 10:34:21;;;;;;;4.62;1.32;;;;;;;27.95;42.82;99748.14;1713094;83;20987;-70
2022/08/01 10:36:47;;;;;;;1.92;1.00;;;;;;;28.04;42.40;99729.80;1713710;83;21098;-78
2022/08/01 10:39:14;;;;;;;1.55;1.45;;;;;;;28.13;42.45;99716.12;1714718;84;21056;-73
2022/08/01 10:41:41;;;;;;;1.85;1.22;;;;;;;28.15;42.45;99726.19;1715359;83;21474;-75
2022/08/01 10:44:08;;;;;;;5.12;1.45;;;;;;;28.17;42.83;99714.34;1714496;84;21011;-76
2022/08/01 10:46:43;;;;;;;1.25;1.07;;;;;;;28.21;42.29;99729.02;1714495;83;21067;-73
2022/08/01 10:49:15;;;;;;;2.30;1.40;;;;;;;28.21;42.21;99726.27;1712623;83;21019;-71
2022/08/01 10:51:44;;;;;;;0.70;0.70;;;;;;;28.17;42.79;99724.51;1714306;84;20955;-73
2022/08/01 10:54:12;;;;;;;2.95;1.32;;;;;;;28.00;43.38;99737.05;1702600;83;21091;-71
2022/08/01 10:56:49;;;;;;;2.30;1.20;;;;;;;27.88;43.54;99749.17;1714614;83;21662;-74
2022/08/01 10:59:25;;;;;;;1.30;1.20;;;;;;;27.85;43.73;99745.69;1713536;84;20991;-77
2022/08/01 11:02:01;;;;;;;3.47;1.37;;;;;;;27.82;43.80;99730.72;1714057;84;21028;-77
2022/08/01 11:05:14;;;;;;;2.62;1.52;;;;;;;27.81;44.12;99728.29;1712907;83;21087;-80
2022/08/01 11:07:53;;;;;;;1.17;1.12;;;;;;;27.80;44.06;99760.89;1712238;84;21073;-75
2022/08/01 11:10:31;;;;;;;3.98;1.05;;;;;;;27.65;43.94;99743.80;1710266;84;21011;-74
2022/08/01 11:12:58;;;;;;;1.47;1.22;;;;;;;27.55;44.46;99713.95;1706812;83;21026;-72
2022/08/01 11:15:25;;;;;;;12.10;1.55;;;;;;;27.55;44.13;99717.48;1701712;84;21360;-74
2022/08/01 11:17:54;;;;;;;1.42;1.32;;;;;;;27.62;44.61;99744.41;1709082;84;21024;-74
2022/08/01 11:20:31;;;;;;;2.15;1.05;;;;;;;27.62;44.72;99717.61;1710007;84;21292;-74
2022/08/01 11:23:04;;;;;;;1.72;1.62;;;;;;;27.55;45.11;99726.27;1710371;83;21538;-74
2022/08/01 11:25:46;;;;;;;1.87;1.77;;;;;;;27.56;45.07;99742.95;1714998;84;21076;-75
2022/08/01 11:28:19;;;;;;;6.65;1.72;;;;;;;27.62;45.20;99738.94;1715593;84;21499;-73
2022/08/01 11:30:49;;;;;;;1.67;1.37;;;;;;;27.67;44.78;99743.45;1709930;83;21076;-78
2022/08/01 11:33:19;;;;;;;1.85;1.72;;;;;;;27.63;44.53;99735.06;1700557;83;21100;-76
2022/08/01 11:36:17;;;;;;;4.55;1.87;;;;;;;27.57;44.77;99740.45;1711055;82;21023;-72
2022/08/01 11:39:08;;;;;;;8.88;2.17;;;;;;;27.53;45.01;99735.36;1702003;84;21083;-72
2022/08/01 11:41:35;;;;;;;3.45;1.65;;;;;;;27.50;45.15;99726.41;1689680;82;21073;-74
2022/08/01 11:44:10;;;;;;;10.18;2.12;;;;;;;27.48;45.36;99742.34;1707676;82;21034;-73
2022/08/01 11:47:03;;;;;;;5.37;1.95;;;;;;;27.51;45.24;99732.14;1707448;82;21023;-74
2022/08/01 11:49:46;;;;;;;2.92;1.85;;;;;;;27.52;45.60;99743.31;1709697;84;21469;-76